createdAt,value
2019-03-10T00:00:45.382Z,0.20
2019-03-10T00:03:17.616Z,0.20
2019-03-10T00:05:48.352Z,0.35
2019-03-10T00:08:19.126Z,0.30
2019-03-10T00:10:49.819Z,0.20
2019-03-10T00:13:20.601Z,0.37
2019-03-10T00:15:51.277Z,0.40
2019-03-10T00:18:21.989Z,0.20
2019-03-10T00:20:52.853Z,0.40
2019-03-10T00:23:23.624Z,0.20
2019-03-10T00:25:54.268Z,0.40
2019-03-10T00:28:24.992Z,0.20
2019-03-10T00:30:55.729Z,0.35
2019-03-10T00:33:26.451Z,0.30
2019-03-10T00:35:57.225Z,0.20
2019-03-10T00:38:29.153Z,0.23
2019-03-10T00:41:39.623Z,0.30
2019-03-10T00:44:54.131Z,0.30
2019-03-10T00:47:54.413Z,0.28
2019-03-10T00:51:11.937Z,0.40
2019-03-10T00:53:42.661Z,0.30
2019-03-10T00:56:15.332Z,0.30
2019-03-10T00:58:46.124Z,0.30
2019-03-10T01:01:16.783Z,0.40
2019-03-10T01:03:47.526Z,0.53
2019-03-10T01:06:18.212Z,0.30
2019-03-10T01:08:48.903Z,0.20
2019-03-10T01:11:19.589Z,0.30
2019-03-10T01:13:51.258Z,0.60
2019-03-10T01:16:22.010Z,1.57
2019-03-10T01:18:53.240Z,1.50
2019-03-10T01:21:23.952Z,1.35
2019-03-10T01:23:54.598Z,1.17
2019-03-10T01:26:25.263Z,1.30
2019-03-10T01:28:56.032Z,0.75
2019-03-10T01:31:38.432Z,0.60
2019-03-10T01:34:30.838Z,0.50
2019-03-10T01:37:01.444Z,0.60
2019-03-10T01:39:32.084Z,0.50
2019-03-10T01:42:02.914Z,0.50
2019-03-10T01:44:34.208Z,0.30
2019-03-10T01:47:04.771Z,0.37
2019-03-10T01:49:35.442Z,0.40
2019-03-10T01:52:06.092Z,0.37
2019-03-10T01:54:36.755Z,0.30
2019-03-10T01:57:07.379Z,0.30
2019-03-10T01:59:38.095Z,0.35
2019-03-10T02:02:08.797Z,0.40
2019-03-10T02:04:39.413Z,0.30
2019-03-10T02:07:11.055Z,0.35
2019-03-10T02:09:41.661Z,0.33
2019-03-10T02:12:12.405Z,0.30
2019-03-10T02:14:43.091Z,0.40
2019-03-10T02:17:13.805Z,0.57
2019-03-10T02:19:44.496Z,0.20
2019-03-10T02:22:15.123Z,0.40
2019-03-10T02:24:45.739Z,0.30
2019-03-10T02:27:16.487Z,0.37
2019-03-10T02:29:47.159Z,0.40
2019-03-10T02:32:17.996Z,0.70
2019-03-10T02:34:48.658Z,1.17
2019-03-10T02:37:19.278Z,0.68
2019-03-10T02:39:49.974Z,0.53
2019-03-10T02:42:20.624Z,0.50
2019-03-10T02:44:51.333Z,0.70
2019-03-10T02:47:22.347Z,0.50
2019-03-10T02:49:53.242Z,0.40
2019-03-10T02:52:23.905Z,0.40
2019-03-10T02:54:54.730Z,0.50
2019-03-10T02:57:25.559Z,0.50
2019-03-10T02:59:56.232Z,0.45
2019-03-10T03:02:26.967Z,0.50
2019-03-10T03:04:57.586Z,0.50
2019-03-10T03:07:28.252Z,0.50
2019-03-10T03:09:59.018Z,0.40
2019-03-10T03:12:29.734Z,0.40
2019-03-10T03:15:00.555Z,0.20
2019-03-10T03:17:31.235Z,0.40
2019-03-10T03:20:02.010Z,0.30
2019-03-10T03:22:33.913Z,0.30
2019-03-10T03:25:05.408Z,0.20
2019-03-10T03:27:36.128Z,0.30
2019-03-10T03:30:07.310Z,0.30
2019-03-10T03:32:38.033Z,0.40
2019-03-10T03:35:45.947Z,0.30
2019-03-10T03:40:48.355Z,0.30
2019-03-10T03:43:18.955Z,0.30
2019-03-10T03:45:49.548Z,0.40
2019-03-10T03:48:20.135Z,0.20
2019-03-10T03:50:50.748Z,0.20
2019-03-10T03:53:21.364Z,0.75
2019-03-10T03:55:52.075Z,0.20
2019-03-10T03:58:22.710Z,0.20
2019-03-10T04:01:00.345Z,0.20
2019-03-10T04:03:30.997Z,0.40
2019-03-10T04:06:01.691Z,0.30
2019-03-10T04:08:32.348Z,0.30
2019-03-10T04:11:02.975Z,0.20
2019-03-10T04:13:33.573Z,0.30
2019-03-10T04:16:04.212Z,0.20
2019-03-10T04:18:34.883Z,0.20
2019-03-10T04:21:05.535Z,0.20
2019-03-10T04:23:36.148Z,0.30
2019-03-10T04:26:06.828Z,0.20
2019-03-10T04:28:37.502Z,0.13
2019-03-10T04:31:08.131Z,0.30
2019-03-10T04:33:38.755Z,0.20
2019-03-10T04:36:09.394Z,0.30
2019-03-10T04:38:39.961Z,0.20
2019-03-10T04:41:10.678Z,0.30
2019-03-10T04:43:41.282Z,0.30
2019-03-10T04:46:11.903Z,0.40
2019-03-10T04:48:42.558Z,0.23
2019-03-10T04:51:13.465Z,1.30
2019-03-10T04:53:44.138Z,7.80
2019-03-10T04:56:33.917Z,6.83
2019-03-10T04:59:04.627Z,3.27
2019-03-10T05:01:35.368Z,4.15
2019-03-10T05:04:06.020Z,3.70
2019-03-10T05:06:36.753Z,1.75
2019-03-10T05:09:08.838Z,1.67
2019-03-10T05:11:39.541Z,0.72
2019-03-10T05:14:10.305Z,0.62
2019-03-10T05:16:41.992Z,0.50
2019-03-10T05:19:13.079Z,0.47
2019-03-10T05:21:44.122Z,0.45
2019-03-10T05:24:15.635Z,0.40
2019-03-10T05:26:46.688Z,0.60
2019-03-10T05:29:17.634Z,0.50
2019-03-10T05:31:48.837Z,0.60
2019-03-10T05:34:19.705Z,0.42
2019-03-10T05:36:50.917Z,0.50
2019-03-10T05:39:22.020Z,0.50
2019-03-10T05:41:53.034Z,0.55
2019-03-10T05:44:24.066Z,0.70
2019-03-10T05:46:54.941Z,0.60
2019-03-10T05:49:26.024Z,0.50
2019-03-10T05:51:56.769Z,0.50
2019-03-10T05:54:28.574Z,0.60
2019-03-10T05:56:59.409Z,0.70
2019-03-10T05:59:30.305Z,0.42
2019-03-10T06:02:01.019Z,0.40
2019-03-10T06:04:31.702Z,0.50
2019-03-10T06:07:02.605Z,0.50
2019-03-10T06:09:33.564Z,0.60
2019-03-10T06:12:04.348Z,0.80
2019-03-10T06:14:35.126Z,0.90
2019-03-10T06:17:06.036Z,0.80
2019-03-10T06:19:36.781Z,0.60
2019-03-10T06:22:07.711Z,0.40
2019-03-10T06:24:38.474Z,0.40
2019-03-10T06:27:09.414Z,0.70
2019-03-10T06:29:40.208Z,0.70
2019-03-10T06:32:10.968Z,0.30
2019-03-10T06:34:41.659Z,0.40
2019-03-10T06:37:12.539Z,0.40
2019-03-10T06:39:43.799Z,0.50
2019-03-10T06:42:19.363Z,0.60
2019-03-10T06:44:50.436Z,0.60
2019-03-10T06:47:21.266Z,0.75
2019-03-10T06:49:52.193Z,1.12
2019-03-10T06:52:24.127Z,0.85
2019-03-10T06:54:55.035Z,0.90
2019-03-10T06:57:25.807Z,1.10
2019-03-10T06:59:56.629Z,1.10
2019-03-10T07:02:27.422Z,1.10
2019-03-10T07:04:58.279Z,1.00
2019-03-10T07:07:29.213Z,1.00
2019-03-10T07:10:00.070Z,1.02
2019-03-10T07:12:31.245Z,1.20
2019-03-10T07:15:02.062Z,0.95
2019-03-10T07:17:35.889Z,1.60
2019-03-10T07:20:09.911Z,1.50
2019-03-10T07:22:41.363Z,1.27
2019-03-10T07:25:12.619Z,1.20
2019-03-10T07:28:05.995Z,1.10
2019-03-10T07:30:42.080Z,1.10
2019-03-10T07:33:37.931Z,1.00
2019-03-10T07:36:44.378Z,1.02
2019-03-10T07:39:23.229Z,0.90
2019-03-10T07:42:11.249Z,0.90
2019-03-10T07:45:01.285Z,0.95
2019-03-10T07:47:42.872Z,2.33
2019-03-10T07:50:45.392Z,2.20
2019-03-10T07:53:36.094Z,1.52
2019-03-10T07:56:30.050Z,1.30
2019-03-10T07:59:18.950Z,1.30
2019-03-10T08:02:02.755Z,1.20
2019-03-10T08:04:55.839Z,0.90
2019-03-10T08:07:45.330Z,1.20
2019-03-10T08:10:41.974Z,1.45
2019-03-10T08:13:35.269Z,1.10
2019-03-10T08:16:29.803Z,1.25
2019-03-10T08:19:15.839Z,0.93
2019-03-10T08:22:05.610Z,0.70
2019-03-10T08:24:47.870Z,0.80
2019-03-10T08:27:35.338Z,0.57
2019-03-10T08:30:15.301Z,0.72
2019-03-10T08:33:01.771Z,0.70
2019-03-10T08:36:04.229Z,0.78
2019-03-10T08:38:55.203Z,0.80
2019-03-10T08:41:38.736Z,1.10
2019-03-10T08:44:29.961Z,1.00
2019-03-10T08:47:07.517Z,0.75
2019-03-10T08:50:03.396Z,0.72
2019-03-10T08:52:56.758Z,0.70
2019-03-10T08:55:44.811Z,0.70
2019-03-10T08:58:44.543Z,0.70
2019-03-10T09:01:33.524Z,1.10
2019-03-10T09:04:14.506Z,5.30
2019-03-10T09:07:06.094Z,5.15
2019-03-10T09:10:01.104Z,6.87
2019-03-10T09:12:50.432Z,5.80
2019-03-10T09:15:29.592Z,3.00
2019-03-10T09:18:15.009Z,13.98
2019-03-10T09:21:23.658Z,23.45
2019-03-10T09:24:07.133Z,6.72
2019-03-10T09:26:49.756Z,7.85
2019-03-10T09:29:45.466Z,9.78
2019-03-10T09:32:27.606Z,6.28
2019-03-10T09:35:08.117Z,4.75
2019-03-10T09:38:03.926Z,2.72
2019-03-10T09:41:00.601Z,1.40
2019-03-10T09:43:51.322Z,1.00
2019-03-10T09:46:41.862Z,0.40
2019-03-10T09:49:43.892Z,0.53
2019-03-10T09:52:25.442Z,0.62
2019-03-10T09:55:17.529Z,0.82
2019-03-10T09:58:04.307Z,0.80
2019-03-10T10:00:58.235Z,0.72
2019-03-10T10:03:48.003Z,0.50
2019-03-10T10:06:39.146Z,1.00
2019-03-10T10:09:29.161Z,2.05
2019-03-10T10:12:33.550Z,3.10
2019-03-10T10:15:24.380Z,6.70
2019-03-10T10:18:21.692Z,6.83
2019-03-10T10:21:30.398Z,6.30
2019-03-10T10:24:13.914Z,4.83
2019-03-10T10:27:05.714Z,2.08
2019-03-10T10:29:44.951Z,1.40
2019-03-10T10:32:23.875Z,1.42
2019-03-10T10:35:16.334Z,1.10
2019-03-10T10:38:18.276Z,0.80
2019-03-10T10:41:25.761Z,1.00
2019-03-10T10:59:07.050Z,11.48
2019-03-10T11:01:52.805Z,4.80
2019-03-10T11:04:42.202Z,1.85
2019-03-10T11:07:22.197Z,1.07
2019-03-10T11:10:30.015Z,1.02
2019-03-10T11:13:12.453Z,0.70
2019-03-10T11:16:01.359Z,0.30
2019-03-10T11:18:39.336Z,0.37
2019-03-10T11:21:34.445Z,0.30
2019-03-10T11:24:39.680Z,0.35
2019-03-10T11:27:28.227Z,0.30
2019-03-10T11:30:27.059Z,0.25
2019-03-10T11:33:06.394Z,0.20
2019-03-10T11:35:53.762Z,0.23
2019-03-10T11:38:36.975Z,0.20
2019-03-10T11:41:13.889Z,0.17
2019-03-10T11:44:15.955Z,0.20
2019-03-10T11:47:05.666Z,0.20
2019-03-10T11:49:48.257Z,0.30
2019-03-10T11:52:33.343Z,0.20
2019-03-10T11:55:30.072Z,0.30
2019-03-10T11:58:08.035Z,0.40
2019-03-10T12:00:56.507Z,0.50
2019-03-10T12:03:58.401Z,0.30
2019-03-10T12:06:38.127Z,0.30
2019-03-10T12:09:20.642Z,0.40
2019-03-10T12:11:51.251Z,0.13
2019-03-10T12:14:21.926Z,3.47
2019-03-10T12:16:52.612Z,9.85
2019-03-10T12:19:23.281Z,1.60
2019-03-10T12:21:55.847Z,0.50
2019-03-10T12:24:26.272Z,0.53
2019-03-10T12:26:56.859Z,0.57
2019-03-10T12:29:28.672Z,0.30
2019-03-10T12:31:59.410Z,0.40
2019-03-10T12:34:30.236Z,0.20
2019-03-10T12:37:00.908Z,0.40
2019-03-10T12:39:31.735Z,0.20
2019-03-10T12:42:02.461Z,0.20
2019-03-10T12:44:33.177Z,0.20
2019-03-10T12:47:03.935Z,0.30
2019-03-10T12:49:34.613Z,0.50
2019-03-10T12:52:05.203Z,0.60
2019-03-10T12:54:35.912Z,0.60
2019-03-10T12:57:06.589Z,0.60
2019-03-10T12:59:37.191Z,0.40
2019-03-10T13:02:07.866Z,0.40
2019-03-10T13:04:38.545Z,0.30
2019-03-10T13:07:09.228Z,0.40
2019-03-10T13:09:39.844Z,0.30
2019-03-10T13:12:10.568Z,0.40
2019-03-10T13:14:41.292Z,1.82
2019-03-10T13:17:11.985Z,0.75
2019-03-10T13:19:42.804Z,0.85
2019-03-10T13:22:13.424Z,1.67
2019-03-10T13:24:44.122Z,1.00
2019-03-10T13:27:14.783Z,2.10
2019-03-10T13:29:45.496Z,1.67
2019-03-10T13:32:16.108Z,6.40
2019-03-10T13:34:46.761Z,3.83
2019-03-10T13:37:17.441Z,1.37
2019-03-10T13:39:48.205Z,0.65
2019-03-10T13:42:18.984Z,0.60
2019-03-10T13:44:49.591Z,0.60
2019-03-10T13:47:20.256Z,0.57
2019-03-10T13:49:50.885Z,0.60
2019-03-10T13:52:21.620Z,0.50
2019-03-10T13:54:52.213Z,0.68
2019-03-10T13:57:22.883Z,1.17
2019-03-10T13:59:53.473Z,0.70
2019-03-10T14:02:24.156Z,0.50
2019-03-10T14:04:54.745Z,1.27
2019-03-10T14:07:25.399Z,1.00
2019-03-10T14:09:56.005Z,0.78
2019-03-10T14:12:26.707Z,1.62
2019-03-10T14:14:57.417Z,2.02
2019-03-10T14:17:28.028Z,1.75
2019-03-10T14:19:58.629Z,1.27
2019-03-10T14:22:29.288Z,1.10
2019-03-10T14:24:59.956Z,0.70
2019-03-10T14:27:30.566Z,2.95
2019-03-10T14:30:01.303Z,0.90
2019-03-10T14:32:31.939Z,1.12
2019-03-10T14:35:02.794Z,3.10
2019-03-10T14:37:33.433Z,1.20
2019-03-10T14:40:04.351Z,1.20
2019-03-10T14:42:34.970Z,0.82
2019-03-10T14:45:06.601Z,0.90
2019-03-10T14:47:38.404Z,0.88
2019-03-10T14:50:09.841Z,0.80
2019-03-10T14:52:40.488Z,0.70
2019-03-10T14:55:11.815Z,1.20
2019-03-10T14:57:42.537Z,0.72
2019-03-10T15:00:15.624Z,0.42
2019-03-10T15:02:46.351Z,0.50
2019-03-10T15:05:17.550Z,0.37
2019-03-10T15:07:48.135Z,0.30
2019-03-10T15:10:18.743Z,0.30
2019-03-10T15:12:49.421Z,0.40
2019-03-10T15:15:22.850Z,0.30
2019-03-10T15:17:52.407Z,0.23
2019-03-10T15:20:23.026Z,0.30
2019-03-10T15:22:53.675Z,0.20
2019-03-10T15:25:25.314Z,0.30
2019-03-10T15:27:56.281Z,0.20
2019-03-10T15:30:26.901Z,0.30
2019-03-10T15:32:57.487Z,0.20
2019-03-10T15:35:28.138Z,0.30
2019-03-10T15:37:58.831Z,0.40
2019-03-10T15:40:29.604Z,0.40
2019-03-10T15:43:00.533Z,0.30
2019-03-10T15:45:31.246Z,5.87
2019-03-10T15:48:01.931Z,1.82
2019-03-10T15:50:32.704Z,1.52
2019-03-10T15:53:03.566Z,2.25
2019-03-10T15:55:34.243Z,3.20
2019-03-10T15:58:04.936Z,1.20
2019-03-10T16:00:35.764Z,0.40
2019-03-10T16:03:06.623Z,0.40
2019-03-10T16:05:37.415Z,0.47
2019-03-10T16:08:08.068Z,0.40
2019-03-10T16:10:38.731Z,0.50
2019-03-10T16:13:09.409Z,0.60
2019-03-10T16:15:40.099Z,0.30
2019-03-10T16:18:10.730Z,0.30
2019-03-10T16:20:41.504Z,0.30
2019-03-10T16:23:12.173Z,0.30
2019-03-10T16:25:42.833Z,0.35
2019-03-10T16:28:13.513Z,0.40
2019-03-10T16:30:44.257Z,0.40
2019-03-10T16:33:14.986Z,0.40
2019-03-10T16:35:45.646Z,0.50
2019-03-10T16:38:16.303Z,0.30
2019-03-10T16:40:47.025Z,0.30
2019-03-10T16:43:17.783Z,0.30
2019-03-10T16:45:48.480Z,0.30
2019-03-10T16:48:19.234Z,0.40
2019-03-10T16:50:49.892Z,0.40
2019-03-10T16:53:20.504Z,0.20
2019-03-10T16:56:02.080Z,0.20
2019-03-10T16:58:23.503Z,0.20
2019-03-10T17:00:55.151Z,0.40
2019-03-10T17:03:25.751Z,0.10
2019-03-10T17:05:56.397Z,0.20
2019-03-10T17:08:27.123Z,0.35
2019-03-10T17:10:57.767Z,0.62
2019-03-10T17:13:28.464Z,0.33
2019-03-10T17:15:59.128Z,0.40
2019-03-10T17:18:29.856Z,0.30
2019-03-10T17:21:00.495Z,0.50
2019-03-10T17:23:31.146Z,0.40
2019-03-10T17:26:01.751Z,0.50
2019-03-10T17:28:32.427Z,0.70
2019-03-10T17:31:03.200Z,0.70
2019-03-10T17:33:33.901Z,0.60
2019-03-10T17:36:04.551Z,0.60
2019-03-10T17:38:35.253Z,1.42
2019-03-10T17:41:05.889Z,1.30
2019-03-10T17:43:36.518Z,0.78
2019-03-10T17:46:07.112Z,0.75
2019-03-10T17:48:37.777Z,0.55
2019-03-10T17:51:08.421Z,0.50
2019-03-10T17:53:41.713Z,0.50
2019-03-10T17:56:11.595Z,0.50
2019-03-10T17:58:42.316Z,0.60
2019-03-10T18:01:13.178Z,0.82
2019-03-10T18:03:43.821Z,0.68
2019-03-10T18:06:14.511Z,0.50
2019-03-10T18:08:45.190Z,0.70
2019-03-10T18:11:15.834Z,0.50
2019-03-10T18:13:46.614Z,0.50
2019-03-10T18:16:17.268Z,0.50
2019-03-10T18:18:47.941Z,1.20
2019-03-10T18:21:18.655Z,1.37
2019-03-10T18:23:49.349Z,0.75
2019-03-10T18:26:20.003Z,4.92
2019-03-10T18:28:50.712Z,1.80
2019-03-10T18:31:21.378Z,1.02
2019-03-10T18:33:52.067Z,0.93
2019-03-10T18:36:22.731Z,1.10
2019-03-10T18:38:53.443Z,1.40
2019-03-10T18:41:24.047Z,1.40
2019-03-10T18:43:54.678Z,1.30
2019-03-10T18:46:25.382Z,1.20
2019-03-10T18:48:56.015Z,1.10
2019-03-10T18:51:26.731Z,1.50
2019-03-10T18:53:57.384Z,1.10
2019-03-10T18:56:28.128Z,1.20
2019-03-10T18:58:59.862Z,1.30
2019-03-10T19:01:30.459Z,1.62
2019-03-10T19:04:01.162Z,1.37
2019-03-10T19:06:31.773Z,1.10
2019-03-10T19:09:02.551Z,1.02
2019-03-10T19:11:34.857Z,0.93
2019-03-10T19:14:06.619Z,1.57
2019-03-10T19:16:37.379Z,1.40
2019-03-10T19:19:07.989Z,1.40
2019-03-10T19:21:38.671Z,1.60
2019-03-10T19:24:09.355Z,1.37
2019-03-10T19:26:39.958Z,1.70
2019-03-10T19:29:10.625Z,1.50
2019-03-10T19:31:41.272Z,1.70
2019-03-10T19:34:11.983Z,1.65
2019-03-10T19:36:42.666Z,1.65
2019-03-10T19:39:13.383Z,2.37
2019-03-10T19:41:44.480Z,1.62
2019-03-10T19:44:15.296Z,2.33
2019-03-10T19:46:45.939Z,2.42
2019-03-10T19:49:16.728Z,2.05
2019-03-10T19:51:47.513Z,2.50
2019-03-10T19:54:18.174Z,2.22
2019-03-10T19:56:48.973Z,2.47
2019-03-10T19:59:20.547Z,2.65
2019-03-10T20:01:51.151Z,3.27
2019-03-10T20:04:22.734Z,3.42
2019-03-10T20:06:53.343Z,8.53
2019-03-10T20:09:24.020Z,3.77
2019-03-10T20:11:54.679Z,2.00
2019-03-10T20:14:25.434Z,3.58
2019-03-10T20:16:56.223Z,6.10
2019-03-10T20:19:26.961Z,2.20
2019-03-10T20:21:57.654Z,2.58
2019-03-10T20:24:28.321Z,2.22
2019-03-10T20:26:59.053Z,1.85
2019-03-10T20:29:29.738Z,1.85
2019-03-10T20:32:00.455Z,2.10
2019-03-10T20:34:32.383Z,1.98
2019-03-10T20:37:03.211Z,1.80
2019-03-10T20:39:36.275Z,2.20
2019-03-10T20:42:07.195Z,1.90
2019-03-10T20:44:37.896Z,1.77
2019-03-10T20:47:08.672Z,2.10
2019-03-10T20:49:39.345Z,1.72
2019-03-10T20:52:09.945Z,1.70
2019-03-10T20:54:40.564Z,1.70
2019-03-10T20:57:11.221Z,1.80
2019-03-10T20:59:41.853Z,2.40
2019-03-10T21:02:12.753Z,4.37
2019-03-10T21:04:43.907Z,3.08
2019-03-10T21:07:14.752Z,6.80
2019-03-10T21:09:45.648Z,4.87
2019-03-10T21:12:16.435Z,5.75
2019-03-10T21:14:47.115Z,2.25
2019-03-10T21:17:17.817Z,2.35
2019-03-10T21:19:48.638Z,3.02
2019-03-10T21:22:21.002Z,1.95
2019-03-10T21:24:51.872Z,2.47
2019-03-10T21:27:22.659Z,1.95
2019-03-10T21:29:53.335Z,1.75
2019-03-10T21:32:24.036Z,3.15
2019-03-10T21:34:54.689Z,1.75
2019-03-10T21:37:25.611Z,1.95
2019-03-10T21:39:56.332Z,3.22
2019-03-10T21:42:27.042Z,1.72
2019-03-10T21:44:57.640Z,1.70
2019-03-10T21:47:28.425Z,2.10
2019-03-10T21:49:59.152Z,1.72
2019-03-10T21:52:29.797Z,1.35
2019-03-10T21:55:00.485Z,1.72
2019-03-10T21:57:31.137Z,2.35
2019-03-10T22:00:01.826Z,1.50
2019-03-10T22:02:34.068Z,1.80
2019-03-10T22:05:04.780Z,1.70
2019-03-10T22:07:35.401Z,1.50
2019-03-10T22:10:06.501Z,1.87
2019-03-10T22:12:37.142Z,1.92
2019-03-10T22:15:09.613Z,2.35
2019-03-10T22:17:41.881Z,2.30
2019-03-10T22:20:13.902Z,1.70
2019-03-10T22:22:49.131Z,1.60
2019-03-10T22:25:17.737Z,1.98
2019-03-10T22:27:48.792Z,2.67
2019-03-10T22:30:19.520Z,1.70
2019-03-10T22:32:50.249Z,1.87
2019-03-10T22:35:20.961Z,1.98
2019-03-10T22:37:51.612Z,1.72
2019-03-10T22:40:22.681Z,1.80
2019-03-10T22:42:53.278Z,1.72
2019-03-10T22:45:24.017Z,1.52
2019-03-10T22:47:54.689Z,2.00
2019-03-10T22:50:25.286Z,3.08
2019-03-10T22:52:55.908Z,5.60
2019-03-10T22:55:26.741Z,4.85
2019-03-10T22:57:57.353Z,1.62
2019-03-10T23:00:39.143Z,2.10
2019-03-10T23:03:11.345Z,1.57
2019-03-10T23:05:42.052Z,1.65
2019-03-10T23:08:12.709Z,1.60
2019-03-10T23:10:43.333Z,1.60
2019-03-10T23:13:15.092Z,2.87
2019-03-10T23:15:45.754Z,3.47
2019-03-10T23:18:16.754Z,23.83
2019-03-10T23:20:48.469Z,20.23
2019-03-10T23:23:19.180Z,5.33
2019-03-10T23:25:49.969Z,5.60
2019-03-10T23:28:20.833Z,18.67
2019-03-10T23:30:51.475Z,17.40
2019-03-10T23:33:22.141Z,21.05
2019-03-10T23:35:52.870Z,8.08
2019-03-10T23:38:23.491Z,4.17
2019-03-10T23:40:54.093Z,3.70
2019-03-10T23:43:24.715Z,13.13
2019-03-10T23:45:55.355Z,5.75
2019-03-10T23:48:26.024Z,3.33
2019-03-10T23:50:56.649Z,3.25
2019-03-10T23:53:27.244Z,1.82
2019-03-10T23:55:57.873Z,1.72
2019-03-10T23:58:28.473Z,1.85
